Time;durP1;ratioP1;P1;durP2;ratioP2;P2;SDS_P1;SDS_P2;PMS_P1;PMS_P2;Temp;Humidity;BMP_temperature;BMP_pressure;BME280_temperature;BME280_humidity;BME280_pressure;Samples;Min_cycle;Max_cycle;Signal;HPM_P1;HPM_P2
2022/08/16 04:00:18;;;;;;;8.70;4.50;;;17.70;99.90;;;;;;6144463;23;21245;31
2022/08/16 04:02:45;;;;;;;5.83;4.50;;;17.70;99.90;;;;;;4989808;28;20463;-75
2022/08/16 04:05:14;;;;;;;6.40;4.50;;;17.70;99.90;;;;;;4992312;28;20462;-75
2022/08/16 04:07:41;;;;;;;5.40;4.00;;;17.80;99.90;;;;;;4992407;28;20483;-75
2022/08/16 04:10:11;;;;;;;6.50;4.80;;;17.80;99.90;;;;;;4992303;28;20963;-75
2022/08/16 04:12:39;;;;;;;4.43;4.03;;;17.80;99.90;;;;;;4972844;28;20850;-75
2022/08/16 04:15:10;;;;;;;6.57;4.60;;;17.80;99.90;;;;;;5007910;23;20501;-75
2022/08/16 04:17:38;;;;;;;7.47;5.23;;;17.70;99.90;;;;;;5011971;28;20458;-75
2022/08/16 04:20:07;;;;;;;5.93;4.60;;;17.70;99.90;;;;;;5011356;28;20455;-75
2022/08/16 04:22:35;;;;;;;4.63;4.00;;;17.60;99.90;;;;;;5012214;28;20471;-75
2022/08/16 04:25:03;;;;;;;6.53;5.17;;;17.60;99.90;;;;;;5011831;28;20481;-74
2022/08/16 04:27:29;;;;;;;5.80;5.20;;;17.60;99.90;;;;;;5011804;28;20559;-75
2022/08/16 04:29:56;;;;;;;6.10;4.13;;;17.60;99.90;;;;;;5015743;28;20457;-75
2022/08/16 04:32:23;;;;;;;4.70;4.17;;;17.60;99.90;;;;;;5015565;28;20504;-75
2022/08/16 04:34:51;;;;;;;6.20;4.50;;;17.60;99.90;;;;;;5015082;28;20482;-75
2022/08/16 04:37:18;;;;;;;4.90;4.50;;;17.60;99.90;;;;;;5015721;28;20467;-75
2022/08/16 04:39:45;;;;;;;6.53;4.80;;;17.60;99.90;;;;;;5015528;28;20954;-75
2022/08/16 04:42:12;;;;;;;5.30;4.33;;;17.60;99.90;;;;;;5015932;28;20450;-75
2022/08/16 04:44:39;;;;;;;5.37;4.87;;;17.60;99.90;;;;;;5015447;28;20458;-74
2022/08/16 04:47:06;;;;;;;5.53;4.93;;;17.60;99.90;;;;;;5015095;28;20462;-75
2022/08/16 04:49:32;;;;;;;5.27;4.77;;;17.60;99.90;;;;;;5015601;28;20557;-74
2022/08/16 04:52:01;;;;;;;7.23;5.17;;;17.60;99.90;;;;;;5015586;28;20454;-75
2022/08/16 04:54:28;;;;;;;6.43;4.73;;;17.60;99.90;;;;;;5014898;28;20455;-75
2022/08/16 04:56:54;;;;;;;7.20;5.03;;;17.60;99.90;;;;;;5015636;28;20465;-75
2022/08/16 04:59:21;;;;;;;6.30;5.33;;;17.60;99.90;;;;;;5015488;28;20636;-74
2022/08/16 05:01:48;;;;;;;6.00;4.80;;;17.60;99.90;;;;;;5015173;28;20463;-75
2022/08/16 05:04:15;;;;;;;7.20;4.50;;;17.60;99.90;;;;;;5015012;28;20458;-75
2022/08/16 05:06:42;;;;;;;6.40;5.20;;;17.60;99.90;;;;;;5015174;28;20481;-75
2022/08/16 05:09:10;;;;;;;6.20;5.00;;;17.60;99.90;;;;;;5015163;28;20500;-75
2022/08/16 05:11:37;;;;;;;7.50;5.00;;;17.60;99.90;;;;;;5014926;28;21004;-75
2022/08/16 05:14:04;;;;;;;5.93;5.33;;;17.60;99.90;;;;;;5014519;28;20830;-75
2022/08/16 05:16:32;;;;;;;7.93;4.67;;;17.60;99.90;;;;;;5014744;28;20490;-75
2022/08/16 05:19:00;;;;;;;5.20;4.03;;;17.60;99.90;;;;;;5014947;28;20537;-75
2022/08/16 05:21:30;;;;;;;6.60;5.83;;;17.60;99.90;;;;;;5015065;28;20488;-75
2022/08/16 05:23:57;;;;;;;7.90;4.70;;;17.60;99.90;;;;;;5014419;28;20521;-75
2022/08/16 05:26:26;;;;;;;7.00;5.53;;;17.60;99.90;;;;;;5014575;28;20485;-75
2022/08/16 05:28:53;;;;;;;5.40;4.90;;;17.60;99.90;;;;;;5014812;28;20497;-75
2022/08/16 05:31:20;;;;;;;7.47;5.50;;;17.60;99.90;;;;;;5014856;28;20462;-75
2022/08/16 05:33:47;;;;;;;6.90;5.00;;;17.70;99.90;;;;;;5014703;28;20565;-75
2022/08/16 05:36:14;;;;;;;6.27;5.23;;;17.70;99.90;;;;;;5014325;28;20474;-75
2022/08/16 05:38:40;;;;;;;7.17;5.23;;;17.70;99.90;;;;;;5014781;28;20450;-75
2022/08/16 05:41:08;;;;;;;6.33;5.40;;;17.80;99.90;;;;;;5013427;28;20463;-76
2022/08/16 05:43:36;;;;;;;7.20;5.33;;;17.80;99.90;;;;;;5014395;28;20456;-75
2022/08/16 05:46:03;;;;;;;8.60;5.10;;;17.80;99.90;;;;;;5013922;28;20475;-75
2022/08/16 05:48:30;;;;;;;9.60;5.23;;;17.80;99.90;;;;;;5014101;28;20859;-75
2022/08/16 05:50:57;;;;;;;7.10;5.40;;;17.80;99.90;;;;;;5014463;28;20809;-75
2022/08/16 05:53:24;;;;;;;5.57;4.50;;;17.90;99.90;;;;;;5014347;28;20458;-75
2022/08/16 05:55:51;;;;;;;6.93;5.07;;;17.90;99.90;;;;;;5013953;28;20479;-75
2022/08/16 05:58:18;;;;;;;7.10;5.00;;;18.00;99.90;;;;;;5014174;28;20459;-75
2022/08/16 06:00:46;;;;;;;5.77;5.07;;;18.00;99.90;;;;;;5014330;28;20454;-75
2022/08/16 06:03:13;;;;;;;8.73;5.03;;;18.00;99.90;;;;;;5014010;28;20461;-75
2022/08/16 06:05:40;;;;;;;8.13;5.17;;;18.00;99.90;;;;;;5013817;28;20483;-75
2022/08/16 06:08:07;;;;;;;7.60;4.80;;;18.00;99.90;;;;;;5013694;28;20536;-75
2022/08/16 06:10:33;;;;;;;6.60;5.50;;;18.10;99.90;;;;;;5013477;28;20833;-75
2022/08/16 06:13:00;;;;;;;9.20;5.80;;;18.10;99.90;;;;;;5013989;28;20454;-75
2022/08/16 06:15:27;;;;;;;8.07;5.77;;;18.20;99.90;;;;;;5013511;28;20482;-75
2022/08/16 06:17:57;;;;;;;6.90;5.27;;;18.20;99.90;;;;;;5013761;28;20461;-75
2022/08/16 06:20:27;;;;;;;7.03;5.37;;;18.30;99.90;;;;;;5014081;28;20796;-75
2022/08/16 06:22:56;;;;;;;7.47;5.20;;;18.30;99.90;;;;;;5014079;28;20450;-75
2022/08/16 06:25:24;;;;;;;6.87;5.57;;;18.30;99.90;;;;;;5013658;28;20482;-75
2022/08/16 06:27:51;;;;;;;6.20;5.60;;;18.40;99.90;;;;;;5013601;28;20490;-76
2022/08/16 06:30:19;;;;;;;6.67;5.30;;;18.40;99.90;;;;;;5014038;28;20450;-75
2022/08/16 06:32:46;;;;;;;5.73;5.20;;;18.50;99.90;;;;;;5013488;28;20831;-75
2022/08/16 06:35:14;;;;;;;6.43;5.47;;;18.50;99.90;;;;;;5013134;28;20474;-75
2022/08/16 06:37:41;;;;;;;6.63;5.70;;;18.50;99.90;;;;;;5013263;28;20943;-76
2022/08/16 06:40:09;;;;;;;6.43;5.57;;;18.70;99.90;;;;;;5013557;28;20458;-76
2022/08/16 06:42:36;;;;;;;5.47;4.90;;;18.70;99.90;;;;;;5013620;28;20463;-75
2022/08/16 06:45:05;;;;;;;6.53;5.70;;;18.90;99.90;;;;;;5013186;28;20501;-76
2022/08/16 06:47:32;;;;;;;7.10;5.13;;;18.90;99.90;;;;;;5013472;28;20486;-75
2022/08/16 06:49:59;;;;;;;8.90;6.13;;;19.00;99.90;;;;;;5012765;28;20492;-76
2022/08/16 06:52:30;;;;;;;5.60;5.10;;;19.00;99.90;;;;;;5012911;28;20835;-75
2022/08/16 06:54:57;;;;;;;9.60;5.07;;;19.10;99.90;;;;;;5013110;28;20483;-75
2022/08/16 06:57:24;;;;;;;7.90;5.77;;;19.10;99.90;;;;;;5013204;28;20545;-75
2022/08/16 06:59:50;;;;;;;8.17;5.37;;;19.20;99.90;;;;;;5013057;28;20455;-76
2022/08/16 07:02:18;;;;;;;6.73;5.07;;;19.20;99.90;;;;;;5013108;28;20554;-76
2022/08/16 07:04:45;;;;;;;8.23;5.20;;;19.30;99.90;;;;;;5012567;28;20489;-76
2022/08/16 07:07:12;;;;;;;5.40;4.90;;;19.30;99.90;;;;;;5013019;28;20454;-76
2022/08/16 07:09:40;;;;;;;6.47;5.50;;;19.30;99.90;;;;;;5012876;28;20494;-76
2022/08/16 07:12:08;;;;;;;10.23;5.40;;;19.40;99.90;;;;;;5012698;28;20965;-76
2022/08/16 07:14:34;;;;;;;10.63;5.90;;;19.40;99.90;;;;;;5012680;28;20455;-75
2022/08/16 07:17:02;;;;;;;6.60;5.30;;;19.50;99.90;;;;;;5012459;28;20465;-75
2022/08/16 07:19:31;;;;;;;6.97;5.53;;;19.50;99.90;;;;;;5013299;28;20529;-75
2022/08/16 07:22:01;;;;;;;6.90;5.57;;;19.60;99.90;;;;;;5013200;28;20529;-75
2022/08/16 07:24:28;;;;;;;7.70;5.60;;;19.70;99.90;;;;;;5012601;28;20465;-75
2022/08/16 07:26:56;;;;;;;6.43;5.40;;;19.80;99.90;;;;;;5013148;28;20446;-75
2022/08/16 07:29:23;;;;;;;7.03;6.33;;;19.90;99.90;;;;;;5013659;28;20488;-75
2022/08/16 07:31:50;;;;;;;8.67;5.50;;;19.90;99.90;;;;;;5013156;28;20461;-75
2022/08/16 07:34:17;;;;;;;8.03;5.03;;;20.00;99.90;;;;;;5012358;28;20455;-75
2022/08/16 07:36:45;;;;;;;8.93;5.93;;;20.10;99.90;;;;;;5012350;28;20482;-75
2022/08/16 07:39:11;;;;;;;8.60;5.90;;;20.30;99.90;;;;;;5012555;28;20451;-75
2022/08/16 07:41:38;;;;;;;7.10;6.30;;;20.40;99.90;;;;;;5012298;28;20469;-75
2022/08/16 07:44:07;;;;;;;6.83;5.50;;;20.30;99.90;;;;;;5012155;28;20458;-75
2022/08/16 07:46:33;;;;;;;9.13;5.23;;;20.50;99.90;;;;;;5012232;28;20510;-75
2022/08/16 07:49:00;;;;;;;5.90;5.33;;;20.50;99.90;;;;;;5012303;28;20486;-75
2022/08/16 07:51:30;;;;;;;6.47;5.17;;;20.60;99.90;;;;;;5012604;28;20801;-75
2022/08/16 07:53:57;;;;;;;7.10;5.50;;;20.70;99.90;;;;;;5012208;28;20513;-75
2022/08/16 07:56:24;;;;;;;6.23;5.17;;;20.70;99.90;;;;;;5011928;28;20978;-75
2022/08/16 07:58:50;;;;;;;6.60;5.60;;;20.90;99.90;;;;;;5011861;28;21051;-75
2022/08/16 08:01:19;;;;;;;7.97;5.90;;;21.00;99.90;;;;;;5012323;28;20463;-75
2022/08/16 08:03:46;;;;;;;11.20;5.70;;;21.00;99.90;;;;;;5011603;28;20463;-75
2022/08/16 08:06:13;;;;;;;5.77;5.27;;;21.00;99.90;;;;;;5012129;28;20561;-75
2022/08/16 08:08:41;;;;;;;5.43;4.93;;;21.10;99.90;;;;;;5012126;28;20493;-75
2022/08/16 08:11:08;;;;;;;7.03;5.37;;;21.20;99.90;;;;;;5012038;28;20473;-75
2022/08/16 08:13:35;;;;;;;7.53;5.00;;;21.30;99.90;;;;;;5011829;28;20465;-75
2022/08/16 08:16:02;;;;;;;5.80;5.30;;;21.40;99.90;;;;;;5011566;28;20482;-76
2022/08/16 08:18:31;;;;;;;6.57;4.90;;;21.50;99.90;;;;;;5012111;28;20458;-75
2022/08/16 08:20:58;;;;;;;7.40;4.90;;;21.60;99.90;;;;;;5011786;28;20826;-75
2022/08/16 08:23:25;;;;;;;6.73;4.70;;;21.90;99.90;;;;;;5011801;28;20454;-75
2022/08/16 08:25:52;;;;;;;7.60;4.73;;;22.00;99.90;;;;;;5011239;28;20475;-75
2022/08/16 08:28:19;;;;;;;7.53;5.70;;;22.10;99.90;;;;;;5012045;28;20459;-75
2022/08/16 08:30:46;;;;;;;6.03;5.43;;;22.30;99.90;;;;;;5012004;28;20467;-75
2022/08/16 08:33:13;;;;;;;5.80;4.97;;;22.50;99.90;;;;;;5011906;28;20780;-75
2022/08/16 08:35:41;;;;;;;6.93;4.83;;;22.50;99.90;;;;;;5011652;28;20489;-75
2022/08/16 08:38:08;;;;;;;6.40;5.73;;;22.70;99.90;;;;;;5011697;28;20939;-75
2022/08/16 08:40:35;;;;;;;6.10;5.37;;;22.70;99.90;;;;;;5011432;28;20466;-75
2022/08/16 08:43:03;;;;;;;7.60;6.00;;;22.80;99.90;;;;;;5011677;28;20973;-75
2022/08/16 08:45:31;;;;;;;6.23;4.70;;;23.20;99.90;;;;;;5011513;28;20478;-75
2022/08/16 08:47:58;;;;;;;9.83;5.87;;;23.30;99.90;;;;;;5011644;28;20458;-75
2022/08/16 08:50:25;;;;;;;6.37;5.77;;;23.40;99.90;;;;;;5011428;28;20837;-75
2022/08/16 08:52:54;;;;;;;6.07;4.93;;;23.40;99.90;;;;;;5011474;28;20466;-75
2022/08/16 08:55:22;;;;;;;7.73;4.77;;;23.50;99.90;;;;;;5011428;28;20474;-75
2022/08/16 08:57:50;;;;;;;6.10;5.20;;;23.50;99.90;;;;;;5011638;28;20447;-75
2022/08/16 09:00:22;;;;;;;6.20;5.40;;;23.60;99.90;;;;;;5011649;28;20546;-75
2022/08/16 09:02:49;;;;;;;7.60;5.53;;;23.70;99.90;;;;;;5011537;28;20455;-75
2022/08/16 09:05:17;;;;;;;6.83;5.47;;;23.70;99.90;;;;;;5011567;28;20478;-75
2022/08/16 09:07:45;;;;;;;6.90;5.07;;;23.90;99.90;;;;;;5011737;28;20454;-75
2022/08/16 09:10:14;;;;;;;8.80;5.83;;;24.00;99.90;;;;;;5011512;28;20525;-75
2022/08/16 09:12:42;;;;;;;8.20;5.23;;;24.10;99.90;;;;;;5011844;28;20549;-75
2022/08/16 09:15:11;;;;;;;6.10;5.30;;;24.20;99.90;;;;;;5012604;28;20489;-75
2022/08/16 09:17:38;;;;;;;7.87;5.50;;;24.30;99.90;;;;;;5015611;28;20538;-75
2022/08/16 09:20:09;;;;;;;9.60;5.17;;;24.40;99.90;;;;;;5015976;28;20455;-75
2022/08/16 09:22:36;;;;;;;7.07;5.33;;;24.40;99.90;;;;;;5016597;28;20509;-75
2022/08/16 09:25:04;;;;;;;7.20;5.60;;;24.50;99.90;;;;;;5015321;28;20479;-75
2022/08/16 09:27:32;;;;;;;8.33;5.50;;;24.60;99.90;;;;;;5015050;28;20454;-75
2022/08/16 09:29:59;;;;;;;9.20;4.80;;;24.60;99.90;;;;;;5015230;28;20513;-75
2022/08/16 09:32:26;;;;;;;7.67;4.90;;;24.80;99.90;;;;;;5014605;28;20458;-75
2022/08/16 09:34:53;;;;;;;6.40;5.47;;;25.00;99.90;;;;;;5014833;28;20479;-75
2022/08/16 09:37:19;;;;;;;6.60;4.77;;;25.10;99.90;;;;;;5015067;28;20450;-75
2022/08/16 09:39:46;;;;;;;5.90;5.03;;;25.20;99.90;;;;;;5014974;28;20978;-75
2022/08/16 09:42:14;;;;;;;7.07;5.03;;;25.30;99.90;;;;;;5014806;28;20458;-75
2022/08/16 09:44:42;;;;;;;8.10;4.80;;;25.50;99.90;;;;;;5014484;28;20832;-75
2022/08/16 09:47:09;;;;;;;6.50;4.73;;;25.70;99.90;;;;;;5014509;28;20545;-75
2022/08/16 09:49:36;;;;;;;6.33;5.23;;;25.80;99.90;;;;;;5014597;28;20863;-75
2022/08/16 09:52:04;;;;;;;5.70;4.40;;;26.00;99.90;;;;;;5014504;28;20458;-75
2022/08/16 09:54:31;;;;;;;9.03;4.83;;;26.10;99.90;;;;;;5014338;28;20455;-75
2022/08/16 09:56:58;;;;;;;6.43;5.10;;;26.40;99.90;;;;;;5014725;28;20772;-75
2022/08/16 09:59:25;;;;;;;8.23;4.70;;;26.80;99.90;;;;;;5014325;28;20554;-75
2022/08/16 10:01:54;;;;;;;7.00;4.53;;;26.90;99.90;;;;;;5014207;28;20455;-75
2022/08/16 10:04:24;;;;;;;7.43;4.33;;;26.90;99.90;;;;;;5013994;28;20466;-75
2022/08/16 10:06:50;;;;;;;7.00;4.20;;;27.10;99.90;;;;;;5014382;28;20509;-75
2022/08/16 10:09:17;;;;;;;5.23;4.40;;;27.20;99.90;;;;;;5014241;28;20486;-75
2022/08/16 10:14:29;;;;;;;5.87;5.17;;;27.30;99.90;;;;;;5013569;28;20418;-75
2022/08/16 10:16:58;;;;;;;5.40;4.10;;;27.30;99.90;;;;;;5014692;28;20458;-75
2022/08/16 10:19:26;;;;;;;6.37;4.67;;;27.30;99.90;;;;;;5014731;28;20450;-75
2022/08/16 10:21:53;;;;;;;4.97;4.13;;;27.30;99.90;;;;;;5015971;28;20443;-75
2022/08/16 10:24:20;;;;;;;10.20;4.53;;;27.30;99.90;;;;;;5014896;28;20517;-75
2022/08/16 10:26:47;;;;;;;5.50;4.90;;;27.30;99.90;;;;;;5014703;28;20838;-75
2022/08/16 10:29:15;;;;;;;6.30;4.80;;;27.20;99.90;;;;;;5015151;28;20497;-75
2022/08/16 10:31:43;;;;;;;5.17;4.60;;;27.20;99.90;;;;;;5013855;28;20463;-75
2022/08/16 10:34:11;;;;;;;5.07;4.07;;;27.20;99.90;;;;;;5014929;28;20943;-75
2022/08/16 10:36:39;;;;;;;4.93;4.53;;;27.30;99.90;;;;;;5013350;28;21093;-75
2022/08/16 10:39:05;;;;;;;5.70;4.27;;;27.20;99.90;;;;;;5013708;28;20486;-75
2022/08/16 10:41:32;;;;;;;5.23;4.30;;;27.10;99.90;;;;;;5013357;28;20831;-75
2022/08/16 10:43:59;;;;;;;5.63;3.60;;;27.20;99.90;;;;;;5013412;28;20459;-75
2022/08/16 10:46:26;;;;;;;5.53;4.33;;;27.70;99.90;;;;;;5013167;28;20478;-75
2022/08/16 10:48:53;;;;;;;6.93;4.00;;;27.80;99.90;;;;;;5013429;28;20459;-75
2022/08/16 10:51:21;;;;;;;5.40;4.37;;;28.10;99.90;;;;;;5013267;28;20498;-75
2022/08/16 10:53:48;;;;;;;5.37;4.20;;;28.40;99.90;;;;;;5012776;28;20471;-75
2022/08/16 10:56:15;;;;;;;8.20;4.20;;;28.60;99.90;;;;;;5012731;28;20881;-75
2022/08/16 10:58:42;;;;;;;5.67;4.30;;;28.70;99.90;;;;;;5013104;28;20955;-75
2022/08/16 11:01:10;;;;;;;5.33;3.83;;;28.40;99.90;;;;;;5013235;28;20450;-75
2022/08/16 11:03:38;;;;;;;9.23;4.60;;;28.30;99.90;;;;;;5012838;28;20539;-75
2022/08/16 11:06:06;;;;;;;7.63;4.47;;;28.10;99.90;;;;;;5012551;28;20841;-75
2022/08/16 11:08:36;;;;;;;7.30;4.70;;;28.10;99.90;;;;;;5012836;28;20462;-75
2022/08/16 11:11:04;;;;;;;4.93;4.07;;;28.00;99.90;;;;;;5012819;28;20522;-75
2022/08/16 11:13:31;;;;;;;5.30;4.23;;;27.90;99.90;;;;;;5012751;28;21026;-75
2022/08/16 11:15:59;;;;;;;4.20;3.80;;;27.80;99.90;;;;;;5012376;28;20478;-75
2022/08/16 11:18:28;;;;;;;8.30;4.47;;;27.80;99.90;;;;;;5012864;28;20486;-75
2022/08/16 11:20:57;;;;;;;5.30;4.80;;;27.80;99.90;;;;;;5012310;28;20462;-75
2022/08/16 11:23:24;;;;;;;7.10;4.00;;;27.80;99.90;;;;;;5012842;28;20550;-75
2022/08/16 11:25:52;;;;;;;7.00;4.17;;;27.80;99.90;;;;;;5012409;28;20532;-75
2022/08/16 11:28:19;;;;;;;8.97;4.73;;;27.90;99.90;;;;;;5012607;28;20454;-75
2022/08/16 11:30:46;;;;;;;11.67;4.90;;;28.10;99.90;;;;;;5012843;28;20587;-75
2022/08/16 11:33:13;;;;;;;6.20;4.43;;;28.40;99.90;;;;;;5012635;28;20451;-75
2022/08/16 11:35:41;;;;;;;5.70;4.00;;;28.70;99.90;;;;;;5011995;28;20487;-75
2022/08/16 11:38:11;;;;;;;8.47;4.23;;;28.80;99.90;;;;;;5012133;28;20455;-75
2022/08/16 11:40:45;;;;;;;4.67;4.23;;;28.90;99.90;;;;;;5012531;28;20450;-75
2022/08/16 11:43:16;;;;;;;4.43;4.00;;;28.70;99.90;;;;;;5012614;28;20818;-75
2022/08/16 11:45:44;;;;;;;7.40;4.70;;;28.60;99.90;;;;;;5011982;28;20487;-75
2022/08/16 11:48:12;;;;;;;6.10;5.00;;;28.50;99.90;;;;;;5012127;28;20454;-75
2022/08/16 11:50:40;;;;;;;8.33;4.17;;;28.30;99.90;;;;;;5012348;28;20573;-75
2022/08/16 11:53:07;;;;;;;5.60;4.40;;;28.30;99.90;;;;;;5012392;28;20466;-75
2022/08/16 11:55:35;;;;;;;5.40;4.30;;;28.30;99.90;;;;;;5012021;28;20475;-75
2022/08/16 11:58:03;;;;;;;7.17;4.77;;;28.40;99.90;;;;;;5012347;28;20535;-75
2022/08/16 12:00:33;;;;;;;6.73;4.57;;;28.30;99.90;;;;;;5011681;28;20814;-75
2022/08/16 12:02:59;;;;;;;5.87;3.97;;;28.40;99.90;;;;;;5012171;28;20465;-75
2022/08/16 12:05:27;;;;;;;7.03;4.60;;;28.70;99.90;;;;;;5011641;28;20485;-75
2022/08/16 12:07:55;;;;;;;7.20;4.20;;;28.80;99.90;;;;;;5012058;28;20466;-75
2022/08/16 12:10:23;;;;;;;6.97;4.07;;;29.10;99.90;;;;;;5011943;28;20491;-75
2022/08/16 12:12:50;;;;;;;6.67;4.10;;;29.10;99.90;;;;;;5012060;28;20452;-75
2022/08/16 12:15:17;;;;;;;6.43;4.47;;;29.50;99.90;;;;;;5011595;28;20491;-75
2022/08/16 12:17:46;;;;;;;5.03;3.87;;;29.80;99.90;;;;;;5012014;28;20454;-75
2022/08/16 12:20:19;;;;;;;5.70;4.10;;;29.60;99.90;;;;;;5011921;28;20935;-75
2022/08/16 12:22:46;;;;;;;5.00;3.80;;;29.40;99.90;;;;;;5011816;28;20538;-75
2022/08/16 12:25:16;;;;;;;4.90;4.40;;;29.10;99.90;;;;;;5011768;28;20691;-75
2022/08/16 12:27:45;;;;;;;5.30;4.33;;;29.10;99.90;;;;;;5011593;28;20543;-75
2022/08/16 12:30:14;;;;;;;5.10;4.33;;;28.80;99.90;;;;;;5012060;28;20499;-75
2022/08/16 12:32:41;;;;;;;4.80;4.00;;;28.70;99.90;;;;;;5011822;28;20451;-75
2022/08/16 12:35:12;;;;;;;6.80;4.70;;;28.60;99.90;;;;;;5011688;28;20486;-75
2022/08/16 12:37:40;;;;;;;4.20;3.80;;;28.80;99.90;;;;;;5011809;28;20463;-75
2022/08/16 12:40:10;;;;;;;5.80;3.67;;;28.80;99.90;;;;;;5011400;28;20461;-75
2022/08/16 12:42:37;;;;;;;8.90;4.33;;;29.00;99.90;;;;;;5011897;28;20455;-75
2022/08/16 12:45:05;;;;;;;6.33;4.20;;;29.20;99.90;;;;;;5011313;28;20478;-75
2022/08/16 12:50:17;;;;;;;4.33;3.90;;;29.70;99.90;;;;;;5014450;28;20470;-75
2022/08/16 12:52:44;;;;;;;4.60;3.63;;;30.10;99.90;;;;;;5015412;28;20454;-75
2022/08/16 12:55:11;;;;;;;5.30;3.93;;;30.20;99.90;;;;;;5015152;28;20860;-75
2022/08/16 12:57:38;;;;;;;9.93;4.00;;;30.00;99.90;;;;;;5015495;28;20454;-75
2022/08/16 13:00:09;;;;;;;4.63;3.73;;;29.80;99.90;;;;;;5015518;28;20446;-75
2022/08/16 13:02:36;;;;;;;4.03;3.60;;;29.80;99.90;;;;;;5015039;28;20470;-75
2022/08/16 13:05:04;;;;;;;7.40;3.80;;;29.80;99.90;;;;;;5014519;28;20953;-75
2022/08/16 13:07:33;;;;;;;4.53;3.57;;;29.80;99.90;;;;;;5015285;28;20901;-75
2022/08/16 13:10:07;;;;;;;5.20;4.03;;;29.80;99.90;;;;;;5015359;28;20454;-75
2022/08/16 13:12:37;;;;;;;4.83;3.80;;;29.90;99.90;;;;;;5015000;28;20923;-75
2022/08/16 13:15:04;;;;;;;6.03;3.77;;;30.00;99.90;;;;;;5014587;28;20498;-75
2022/08/16 13:17:31;;;;;;;4.77;3.70;;;30.00;99.90;;;;;;5014665;28;20450;-75
2022/08/16 13:19:59;;;;;;;4.20;3.30;;;30.10;99.90;;;;;;5015079;28;20461;-75
2022/08/16 13:22:26;;;;;;;6.97;4.00;;;30.10;99.90;;;;;;5015011;28;20481;-75
2022/08/16 13:24:55;;;;;;;4.43;3.13;;;30.10;99.90;;;;;;5014714;28;20475;-75
2022/08/16 13:27:22;;;;;;;4.70;3.20;;;30.10;99.90;;;;;;5014909;28;20462;-75
2022/08/16 13:29:53;;;;;;;6.13;3.40;;;30.10;99.90;;;;;;5014676;28;20833;-76
2022/08/16 13:32:19;;;;;;;4.30;3.90;;;30.10;99.90;;;;;;5014808;28;20501;-76
2022/08/16 13:34:46;;;;;;;8.30;3.53;;;30.10;99.90;;;;;;5014543;28;20483;-76
2022/08/16 13:37:13;;;;;;;4.67;3.33;;;30.10;99.90;;;;;;5014681;28;20539;-76
2022/08/16 13:39:40;;;;;;;6.00;3.00;;;30.20;99.90;;;;;;5014426;28;21025;-76
2022/08/16 13:42:11;;;;;;;7.00;3.83;;;30.30;99.90;;;;;;5015024;28;20453;-76
2022/08/16 13:44:38;;;;;;;5.50;3.47;;;30.20;99.80;;;;;;5013911;28;20467;-76
2022/08/16 13:47:06;;;;;;;5.33;4.03;;;30.20;99.40;;;;;;5014550;28;20581;-76
2022/08/16 13:49:33;;;;;;;5.57;3.17;;;30.00;99.20;;;;;;5014742;28;20465;-76
2022/08/16 13:52:00;;;;;;;5.47;3.23;;;30.00;99.80;;;;;;5014586;28;20486;-76
2022/08/16 13:54:27;;;;;;;4.37;3.50;;;30.20;99.20;;;;;;5013974;28;20490;-74
2022/08/16 13:56:54;;;;;;;5.10;3.40;;;30.40;98.40;;;;;;5014377;28;20505;-74
2022/08/16 13:59:22;;;;;;;3.97;3.50;;;30.30;98.30;;;;;;5014006;28;20916;-74
2022/08/16 14:01:51;;;;;;;4.73;3.53;;;30.40;98.10;;;;;;5013694;28;20484;-74
2022/08/16 14:04:18;;;;;;;4.27;3.17;;;30.50;98.00;;;;;;5014104;28;20476;-74
2022/08/16 14:06:44;;;;;;;5.40;3.23;;;30.60;98.50;;;;;;5013896;28;21063;-74
2022/08/16 14:09:11;;;;;;;5.20;3.53;;;30.60;99.50;;;;;;5014323;28;20458;-73
2022/08/16 14:11:38;;;;;;;3.90;3.50;;;30.80;98.10;;;;;;5013877;28;20624;-73
2022/08/16 14:14:05;;;;;;;6.50;3.50;;;30.90;98.20;;;;;;5013898;28;20462;-73
2022/08/16 14:16:34;;;;;;;6.30;3.80;;;30.90;97.70;;;;;;5013811;28;20525;-73
2022/08/16 14:19:01;;;;;;;4.40;3.53;;;30.80;96.80;;;;;;5013746;28;20455;-73
2022/08/16 14:21:28;;;;;;;6.40;3.80;;;30.70;97.30;;;;;;5013946;28;20458;-73
2022/08/16 14:23:55;;;;;;;4.90;3.33;;;30.70;97.40;;;;;;5013444;28;21043;-73
2022/08/16 14:26:22;;;;;;;5.27;3.73;;;30.70;97.30;;;;;;5013473;28;20479;-73
2022/08/16 14:28:49;;;;;;;7.27;3.40;;;30.70;97.30;;;;;;5013475;28;20927;-73
2022/08/16 14:31:16;;;;;;;5.50;3.50;;;30.70;97.00;;;;;;5013555;28;20513;-73
2022/08/16 14:33:45;;;;;;;5.73;4.27;;;30.70;98.00;;;;;;5013950;28;20459;-73
2022/08/16 14:36:14;;;;;;;8.03;3.70;;;30.70;96.90;;;;;;5013511;28;20470;-73
2022/08/16 14:38:41;;;;;;;6.53;3.60;;;30.70;97.50;;;;;;5013305;28;20549;-73
2022/08/16 14:41:07;;;;;;;4.60;3.43;;;30.80;96.80;;;;;;5013493;28;20554;-73
2022/08/16 14:43:34;;;;;;;3.50;3.20;;;30.90;97.10;;;;;;5013583;28;20462;-73
2022/08/16 14:46:03;;;;;;;4.17;3.60;;;30.90;95.10;;;;;;5013074;28;20491;-73
2022/08/16 14:48:30;;;;;;;5.80;3.47;;;30.90;95.60;;;;;;5013393;28;20458;-73
2022/08/16 14:50:58;;;;;;;4.13;3.30;;;30.80;95.50;;;;;;5012999;28;21016;-73
2022/08/16 14:53:26;;;;;;;4.50;3.53;;;30.60;96.60;;;;;;5013002;28;20931;-73
2022/08/16 14:55:53;;;;;;;10.10;3.67;;;30.60;97.00;;;;;;5012951;28;20833;-73
2022/08/16 14:58:20;;;;;;;6.23;4.00;;;30.60;96.80;;;;;;5013196;28;20459;-73
2022/08/16 15:00:47;;;;;;;4.00;3.37;;;30.70;96.00;;;;;;5013280;28;20459;-73
2022/08/16 15:03:14;;;;;;;4.10;3.43;;;30.80;95.60;;;;;;5013199;28;20675;-73
2022/08/16 15:05:41;;;;;;;7.43;3.37;;;30.90;95.70;;;;;;5012439;28;21082;-73
2022/08/16 15:08:11;;;;;;;4.60;3.73;;;30.80;96.20;;;;;;5012860;28;20546;-75
2022/08/16 15:10:38;;;;;;;8.40;3.80;;;30.80;96.50;;;;;;5012822;28;20462;-75
2022/08/16 15:13:06;;;;;;;4.30;3.20;;;30.80;96.10;;;;;;5012690;28;20454;-75
2022/08/16 15:15:33;;;;;;;9.10;3.50;;;30.90;96.60;;;;;;5012399;28;20492;-75
2022/08/16 15:18:00;;;;;;;6.13;4.00;;;30.90;95.40;;;;;;5012656;28;20951;-75
2022/08/16 15:20:29;;;;;;;6.33;3.60;;;30.90;95.90;;;;;;5012593;28;20458;-74
2022/08/16 15:22:58;;;;;;;6.10;3.70;;;30.90;95.80;;;;;;5012698;28;20455;-74
2022/08/16 15:25:28;;;;;;;5.63;3.70;;;30.90;96.20;;;;;;5012333;28;20482;-74
2022/08/16 15:27:55;;;;;;;7.13;3.60;;;30.90;97.10;;;;;;5012481;28;20950;-74
2022/08/16 15:30:25;;;;;;;6.97;3.47;;;30.90;95.60;;;;;;5012965;28;20459;-74
2022/08/16 15:32:56;;;;;;;7.73;3.63;;;30.90;95.90;;;;;;5012099;28;20494;-74
2022/08/16 15:35:23;;;;;;;4.43;3.57;;;31.00;96.90;;;;;;5012234;28;20478;-74
2022/08/16 15:37:51;;;;;;;6.10;3.50;;;31.00;95.50;;;;;;5012737;28;20480;-74
2022/08/16 15:40:18;;;;;;;9.50;5.07;;;31.10;95.40;;;;;;5012370;28;20451;-74
2022/08/16 15:42:51;;;;;;;11.63;3.90;;;31.20;97.30;;;;;;5012446;28;20490;-74
2022/08/16 15:46:21;;;;;;;4.80;3.93;;;31.20;96.30;;;;;;5011873;28;20860;-74
2022/08/16 15:48:05;;;;;;;4.53;3.63;;;31.30;95.50;;;;;;5011992;28;20459;-74
2022/08/16 15:50:32;;;;;;;6.63;3.70;;;31.40;94.30;;;;;;5012205;28;20455;-74
2022/08/16 15:53:03;;;;;;;5.90;3.50;;;31.50;94.20;;;;;;5012286;28;20447;-74
2022/08/16 15:55:30;;;;;;;5.13;3.43;;;31.60;95.40;;;;;;5011791;28;20477;-74
2022/08/16 15:57:59;;;;;;;5.20;3.47;;;31.60;95.80;;;;;;5012044;28;20457;-74
2022/08/16 16:00:26;;;;;;;4.40;3.33;;;31.60;96.00;;;;;;5012285;28;20465;-74
2022/08/16 16:03:00;;;;;;;5.03;3.90;;;31.70;95.00;;;;;;5011970;28;20465;-74
2022/08/16 16:05:27;;;;;;;6.63;3.60;;;31.70;95.30;;;;;;5011776;28;20480;-74
2022/08/16 16:07:54;;;;;;;3.93;3.53;;;31.80;94.30;;;;;;5012029;28;20461;-74
2022/08/16 16:10:21;;;;;;;3.93;3.57;;;31.90;95.30;;;;;;5012297;28;20554;-74
2022/08/16 16:12:52;;;;;;;8.77;3.17;;;31.90;94.90;;;;;;5011936;28;20495;-74
2022/08/16 16:15:24;;;;;;;5.30;3.40;;;31.90;94.60;;;;;;5034824;23;20497;-75
2022/08/16 16:17:52;;;;;;;8.37;3.57;;;31.90;93.70;;;;;;5012281;28;20431;-75
2022/08/16 16:20:19;;;;;;;5.10;3.37;;;31.90;93.10;;;;;;5012104;28;20455;-75
2022/08/16 16:22:48;;;;;;;6.60;3.80;;;31.90;94.70;;;;;;5011953;28;20887;-75
2022/08/16 16:25:15;;;;;;;5.53;3.60;;;31.90;94.80;;;;;;5014724;28;20532;-75
2022/08/16 16:27:42;;;;;;;4.37;3.90;;;31.90;94.80;;;;;;5015887;28;20447;-75
2022/08/16 16:30:10;;;;;;;7.50;3.87;;;31.90;94.40;;;;;;5015939;28;20446;-75
2022/08/16 16:32:38;;;;;;;5.33;3.63;;;31.80;93.60;;;;;;5015762;28;20495;-75
2022/08/16 16:35:08;;;;;;;4.67;3.77;;;31.70;92.90;;;;;;5015396;28;20470;-75
2022/08/16 16:37:35;;;;;;;4.93;3.63;;;31.50;92.70;;;;;;5015255;28;20945;-75
2022/08/16 16:40:02;;;;;;;4.87;3.87;;;31.50;92.70;;;;;;5015615;28;20450;-75
2022/08/16 16:42:34;;;;;;;5.97;4.00;;;31.30;93.30;;;;;;5015725;28;20486;-75
2022/08/16 16:45:01;;;;;;;4.87;3.47;;;31.20;93.10;;;;;;5015231;28;20467;-76
2022/08/16 16:47:28;;;;;;;4.40;3.30;;;31.10;93.10;;;;;;5015762;28;20458;-75
2022/08/16 16:49:56;;;;;;;5.67;3.57;;;31.00;94.20;;;;;;5015220;28;20481;-75
2022/08/16 16:52:24;;;;;;;6.37;3.70;;;31.00;93.90;;;;;;5015005;28;20505;-75